Time;durP1;ratioP1;P1;durP2;ratioP2;P2;SDS_P1;SDS_P2;PMS_P1;PMS_P2;Temp;Humidity;BMP_temperature;BMP_pressure;BME280_temperature;BME280_humidity;BME280_pressure;Samples;Min_cycle;Max_cycle;Signal;HPM_P1;HPM_P2
2022/05/04 00:00:09;;;;;;;10.70;5.25;;;;;;;3.29;100.00;95060.25;5060065;28;20048;-71
2022/05/04 00:02:40;;;;;;;11.18;5.50;;;;;;;3.19;100.00;95056.16;5063076;28;20106;-71
2022/05/04 00:05:08;;;;;;;8.57;5.68;;;;;;;3.17;100.00;95057.31;5043711;28;20059;-70
2022/05/04 00:07:35;;;;;;;8.77;5.65;;;;;;;3.04;100.00;95045.06;5061505;28;20553;-70
2022/05/04 00:10:03;;;;;;;9.30;5.53;;;;;;;3.02;100.00;95057.31;5060084;28;20048;-71
2022/05/04 00:12:29;;;;;;;9.25;5.22;;;;;;;2.97;100.00;95062.19;5056357;28;20045;-71
2022/05/04 00:14:56;;;;;;;7.65;4.78;;;;;;;2.89;100.00;95054.59;5056772;28;20744;-71
2022/05/04 00:17:23;;;;;;;9.13;5.80;;;;;;;2.89;100.00;95064.88;5059081;28;20638;-71
2022/05/04 00:19:50;;;;;;;7.38;4.70;;;;;;;2.89;100.00;95064.88;5078373;28;20045;-71
2022/05/04 00:22:19;;;;;;;6.75;4.68;;;;;;;2.80;100.00;95067.53;5062701;28;20485;-71
2022/05/04 00:24:46;;;;;;;11.30;5.22;;;;;;;2.86;100.00;95071.97;5062457;28;20052;-70
2022/05/04 00:27:15;;;;;;;7.72;4.90;;;;;;;2.86;100.00;95061.69;5060222;28;20044;-71
2022/05/04 00:29:43;;;;;;;8.30;4.82;;;;;;;2.91;100.00;95065.50;5060242;28;20951;-71
2022/05/04 00:32:14;;;;;;;8.75;5.13;;;;;;;2.81;100.00;95052.88;5053833;28;20106;-71
2022/05/04 00:34:41;;;;;;;11.02;5.68;;;;;;;2.80;100.00;95062.38;5063187;28;20044;-71
2022/05/04 00:37:08;;;;;;;8.55;5.28;;;;;;;2.76;100.00;95066.28;5060400;28;20886;-71
2022/05/04 00:39:36;;;;;;;7.13;4.50;;;;;;;2.74;100.00;95072.56;5057816;28;20545;-71
2022/05/04 00:42:21;;;;;;;11.35;5.13;;;;;;;2.71;100.00;95078.88;5072693;28;20565;-70
2022/05/04 00:44:49;;;;;;;8.82;5.28;;;;;;;2.62;100.00;95067.06;5060793;28;20044;-71
2022/05/04 00:47:17;;;;;;;7.57;4.68;;;;;;;2.64;100.00;95078.75;5055985;28;20032;-71
2022/05/04 00:49:49;;;;;;;7.75;4.28;;;;;;;2.63;100.00;95066.91;5060760;28;20047;-72
2022/05/04 00:52:19;;;;;;;7.70;5.53;;;;;;;2.51;100.00;95058.00;5060643;28;20566;-72
2022/05/04 00:54:50;;;;;;;9.55;4.32;;;;;;;2.51;100.00;95067.50;5060961;28;20485;-71
2022/05/04 01:00:07;;;;;;;10.57;5.55;;;;;;;2.38;100.00;95058.59;5058939;28;20041;-72
2022/05/04 01:02:37;;;;;;;8.13;4.55;;;;;;;2.45;100.00;95074.94;5063497;28;20044;-72
2022/05/04 01:05:09;;;;;;;8.32;4.65;;;;;;;2.46;100.00;95086.78;5045416;28;20139;-72
2022/05/04 01:07:37;;;;;;;8.00;4.80;;;;;;;2.49;100.00;95086.47;5063638;28;20071;-72
2022/05/04 01:10:05;;;;;;;8.07;4.60;;;;;;;2.39;100.00;95078.19;5065359;28;20583;-72
2022/05/04 01:12:32;;;;;;;7.97;4.80;;;;;;;2.38;100.00;95086.88;5075533;28;20052;-72
2022/05/04 01:14:59;;;;;;;8.32;4.28;;;;;;;2.37;100.00;95087.06;5046295;28;20064;-72
2022/05/04 01:17:29;;;;;;;5.88;3.58;;;;;;;2.26;100.00;95070.28;5060810;28;20049;-71
2022/05/04 01:19:56;;;;;;;8.63;4.93;;;;;;;2.30;100.00;95081.78;5059281;28;20111;-71
2022/05/04 01:22:24;;;;;;;13.50;7.55;;;;;;;2.23;100.00;95078.31;5058324;28;20670;-70
2022/05/04 01:24:51;;;;;;;10.05;5.45;;;;;;;2.25;100.00;95084.91;5064487;28;20048;-71
2022/05/04 01:27:18;;;;;;;7.20;4.15;;;;;;;2.24;100.00;95085.06;5040616;28;20053;-71
2022/05/04 01:29:47;;;;;;;5.20;3.15;;;;;;;2.21;100.00;95087.97;5059941;28;20044;-70
2022/05/04 01:32:15;;;;;;;4.75;3.25;;;;;;;2.19;100.00;95089.91;5062064;28;20041;-70
2022/05/04 01:34:42;;;;;;;7.18;3.85;;;;;;;2.10;100.00;95089.97;5061034;28;20041;-71
2022/05/04 01:37:12;;;;;;;6.68;4.10;;;;;;;1.99;100.00;95085.22;5064449;28;20113;-71
2022/05/04 01:39:39;;;;;;;7.18;3.97;;;;;;;1.93;100.00;95085.94;5062305;28;20052;-71
2022/05/04 01:42:09;;;;;;;6.05;3.50;;;;;;;1.83;100.00;95077.63;5059459;28;20520;-71
2022/05/04 01:44:36;;;;;;;9.07;4.45;;;;;;;1.88;100.00;95088.22;5064304;28;20063;-71
2022/05/04 01:47:03;;;;;;;8.32;4.40;;;;;;;1.88;100.00;95083.84;5059588;28;20043;-70
2022/05/04 01:49:30;;;;;;;5.15;3.05;;;;;;;1.86;100.00;95067.03;5062033;28;20067;-70
2022/05/04 01:51:57;;;;;;;20.45;8.15;;;;;;;1.87;100.00;95084.03;5064411;28;20040;-73
2022/05/04 01:54:24;;;;;;;13.45;5.90;;;;;;;1.90;100.00;95081.91;5066396;28;20501;-73
2022/05/04 01:56:50;;;;;;;9.52;4.95;;;;;;;1.97;100.00;95082.03;5065453;28;20044;-73
2022/05/04 01:59:17;;;;;;;7.45;4.78;;;;;;;2.02;100.00;95084.91;5063493;28;20052;-72
2022/05/04 02:01:46;;;;;;;13.30;4.63;;;;;;;2.08;100.00;95073.94;5063282;28;20684;-72
2022/05/04 02:04:14;;;;;;;8.32;5.03;;;;;;;2.16;100.00;95079.97;5061115;28;20120;-72
2022/05/04 02:06:42;;;;;;;9.35;5.18;;;;;;;2.06;100.00;95078.44;5064209;28;20106;-71
2022/05/04 02:09:09;;;;;;;9.90;4.97;;;;;;;1.99;100.00;95074.97;5062239;28;20036;-72
2022/05/04 02:11:37;;;;;;;7.90;4.70;;;;;;;2.02;100.00;95079.75;5059892;28;20048;-70
2022/05/04 02:14:05;;;;;;;10.40;4.85;;;;;;;2.02;100.00;95074.63;5063116;28;20043;-70
2022/05/04 02:16:31;;;;;;;8.45;4.90;;;;;;;1.97;100.00;95082.03;5064907;28;20032;-71
2022/05/04 02:18:59;;;;;;;12.35;6.88;;;;;;;1.90;100.00;95070.84;5045209;28;20056;-71
2022/05/04 02:21:26;;;;;;;10.55;6.88;;;;;;;1.83;100.00;95067.38;5064957;28;20044;-71
2022/05/04 02:23:54;;;;;;;8.30;5.30;;;;;;;1.87;100.00;95068.63;5063493;28;20425;-71
2022/05/04 02:26:21;;;;;;;9.57;5.32;;;;;;;1.88;100.00;95076.16;5057080;28;20123;-71
2022/05/04 02:28:48;;;;;;;10.05;5.72;;;;;;;1.93;100.00;95080.78;5059295;28;20043;-70
2022/05/04 02:31:15;;;;;;;7.45;4.30;;;;;;;1.93;100.00;95070.53;5057159;28;20171;-70
2022/05/04 02:33:44;;;;;;;8.18;4.75;;;;;;;1.92;100.00;95069.69;5064057;28;20541;-70
2022/05/04 02:38:57;;;;;;;6.90;4.38;;;;;;;1.75;100.00;95088.78;5061777;28;20088;-71
2022/05/04 02:41:24;;;;;;;7.88;3.97;;;;;;;1.68;100.00;95093.78;5061024;28;20106;-71
2022/05/04 02:43:50;;;;;;;6.88;4.40;;;;;;;1.65;100.00;95088.97;5062555;28;20105;-71
2022/05/04 02:46:23;;;;;;;7.15;4.40;;;;;;;1.49;100.00;95084.72;5062985;28;20517;-71
2022/05/04 02:48:50;;;;;;;7.72;3.30;;;;;;;1.53;100.00;95086.00;5056272;28;20048;-71
2022/05/04 02:51:17;;;;;;;12.45;4.65;;;;;;;1.53;100.00;95090.31;5062838;28;20852;-70
2022/05/04 02:53:43;;;;;;;6.88;4.03;;;;;;;1.54;100.00;95102.19;5062124;28;20979;-71
2022/05/04 02:56:13;;;;;;;7.82;4.32;;;;;;;1.47;100.00;95096.13;5060774;28;20044;-73
2022/05/04 02:58:40;;;;;;;8.65;3.75;;;;;;;1.48;100.00;95082.34;5062849;28;20592;-72
2022/05/04 03:04:08;;;;;;;7.13;3.58;;;;;;;1.77;100.00;95091.16;5052842;28;20052;-72
2022/05/04 03:06:36;;;;;;;6.35;4.10;;;;;;;1.86;100.00;95095.28;5055159;28;20257;-73
2022/05/04 03:09:04;;;;;;;8.70;3.75;;;;;;;2.00;100.00;95102.25;5061930;28;20044;-73
2022/05/04 03:14:20;;;;;;;6.30;4.55;;;;;;;2.05;100.00;95104.31;5063021;28;20055;-72
2022/05/04 03:16:47;;;;;;;12.35;5.35;;;;;;;1.93;100.00;95101.34;5062814;28;20059;-72
2022/05/04 03:19:15;;;;;;;9.07;4.93;;;;;;;2.00;100.00;95112.53;5062194;28;20099;-72
2022/05/04 03:21:42;;;;;;;7.43;4.40;;;;;;;1.94;100.00;95092.66;5057892;28;20102;-72
2022/05/04 03:24:09;;;;;;;5.45;3.97;;;;;;;2.10;100.00;95102.81;5062167;28;20040;-71
2022/05/04 03:26:36;;;;;;;9.27;5.30;;;;;;;2.14;100.00;95112.75;5056289;28;20044;-72
2022/05/04 03:29:03;;;;;;;14.20;7.72;;;;;;;2.12;100.00;95114.69;5058578;28;20583;-73
2022/05/04 03:31:30;;;;;;;12.98;7.18;;;;;;;2.14;100.00;95102.47;5059308;28;20048;-72
2022/05/04 03:33:57;;;;;;;10.43;5.90;;;;;;;2.29;100.00;95118.75;5060699;28;20048;-72
2022/05/04 03:36:25;;;;;;;7.57;4.38;;;;;;;2.31;100.00;95123.75;5077324;28;20044;-71
2022/05/04 03:38:52;;;;;;;8.07;4.38;;;;;;;2.23;100.00;95109.16;5052466;28;20076;-72
2022/05/04 03:41:20;;;;;;;5.38;3.42;;;;;;;2.39;100.00;95132.16;5061009;28;20052;-71
2022/05/04 03:43:48;;;;;;;12.98;4.30;;;;;;;2.35;100.00;95136.06;5057721;28;20602;-71
2022/05/04 03:46:19;;;;;;;5.93;3.67;;;;;;;2.36;100.00;95150.53;5053359;28;20037;-72
2022/05/04 03:48:49;;;;;;;7.88;4.13;;;;;;;2.31;100.00;95159.72;5043161;28;20047;-72
2022/05/04 03:51:19;;;;;;;6.30;3.65;;;;;;;2.27;100.00;95156.69;5064206;28;20075;-72
2022/05/04 03:53:50;;;;;;;6.32;3.55;;;;;;;2.26;100.00;95152.50;5063830;28;20984;-72
2022/05/04 03:56:18;;;;;;;5.20;3.53;;;;;;;2.31;100.00;95164.88;5058854;28;20051;-73
2022/05/04 03:58:46;;;;;;;7.57;4.18;;;;;;;2.35;100.00;95161.75;5062757;28;20453;-73
2022/05/04 04:01:13;;;;;;;11.18;4.03;;;;;;;2.30;100.00;95164.03;5057670;28;20534;-72
2022/05/04 04:03:40;;;;;;;6.32;4.18;;;;;;;2.31;100.00;95160.50;5060050;28;20075;-71
2022/05/04 04:06:07;;;;;;;12.50;4.93;;;;;;;2.35;100.00;95161.75;5059999;28;20040;-72
2022/05/04 04:08:34;;;;;;;11.32;6.22;;;;;;;2.41;100.00;95166.25;5056402;28;20037;-71
2022/05/04 04:11:01;;;;;;;16.05;6.72;;;;;;;2.45;100.00;95162.34;5052108;28;20044;-71
2022/05/04 04:13:28;;;;;;;11.23;7.07;;;;;;;2.44;100.00;95149.66;5053012;28;20059;-71
2022/05/04 04:15:56;;;;;;;11.18;6.13;;;;;;;2.53;100.00;95152.97;5059366;28;20750;-71
2022/05/04 04:18:24;;;;;;;8.43;5.22;;;;;;;2.70;100.00;95154.41;5061295;28;20064;-71
2022/05/04 04:23:39;;;;;;;11.73;6.28;;;;;;;2.82;100.00;95150.47;5060618;28;20439;-72
2022/05/04 04:26:10;;;;;;;17.45;9.23;;;;;;;2.91;100.00;95150.41;5061563;28;20835;-72
2022/05/04 04:28:38;;;;;;;18.13;8.48;;;;;;;2.97;100.00;95153.06;5061156;28;20401;-71
2022/05/04 04:31:08;;;;;;;15.25;7.75;;;;;;;3.03;100.00;95154.94;5043574;28;20053;-72
2022/05/04 04:33:36;;;;;;;14.43;7.07;;;;;;;3.11;100.00;95156.63;5057321;28;20059;-72
2022/05/04 04:36:04;;;;;;;15.40;7.15;;;;;;;3.13;100.00;95153.88;5061647;28;20041;-72
2022/05/04 04:38:31;;;;;;;9.82;6.00;;;;;;;3.22;100.00;95151.06;5059062;28;20048;-72
2022/05/04 04:40:58;;;;;;;12.60;6.22;;;;;;;3.27;100.00;95149.72;5068214;28;20048;-73
2022/05/04 04:43:25;;;;;;;12.32;5.93;;;;;;;3.29;100.00;95152.91;5064490;28;20063;-72
2022/05/04 04:45:52;;;;;;;9.13;5.53;;;;;;;3.44;100.00;95171.75;5066827;28;20059;-73
2022/05/04 04:48:21;;;;;;;11.07;5.55;;;;;;;3.55;100.00;95168.72;5059786;28;20561;-71
2022/05/04 04:50:48;;;;;;;10.88;5.30;;;;;;;3.64;100.00;95162.50;5066720;28;20044;-73
2022/05/04 04:53:17;;;;;;;9.50;6.20;;;;;;;3.77;100.00;95161.06;5065720;28;20052;-74
2022/05/04 04:55:45;;;;;;;12.23;6.95;;;;;;;3.69;100.00;95137.97;5064340;28;20045;-72
2022/05/04 04:58:13;;;;;;;13.73;6.50;;;;;;;3.96;100.00;95165.66;5056734;28;20041;-71
2022/05/04 05:00:41;;;;;;;13.25;6.88;;;;;;;4.16;100.00;95171.03;5057491;28;20051;-72
2022/05/04 05:03:08;;;;;;;11.60;6.40;;;;;;;4.08;100.00;95136.81;5078197;28;20147;-73
2022/05/04 05:05:40;;;;;;;7.78;5.05;;;;;;;4.46;100.00;95170.13;5066098;28;20045;-72
2022/05/04 05:08:08;;;;;;;11.52;6.60;;;;;;;4.70;100.00;95167.16;5058893;28;20098;-72
2022/05/04 05:10:35;;;;;;;11.52;7.00;;;;;;;4.90;100.00;95171.69;5057105;28;20043;-71
2022/05/04 05:13:02;;;;;;;11.13;6.78;;;;;;;5.12;100.00;95155.16;5075882;28;20052;-71
2022/05/04 05:18:15;;;;;;;15.43;8.07;;;;;;;5.51;100.00;95164.16;5063319;28;20120;-72
2022/05/04 05:20:42;;;;;;;12.27;7.47;;;;;;;5.73;100.00;95171.81;5064462;28;20129;-72
2022/05/04 05:23:09;;;;;;;13.52;8.65;;;;;;;5.87;100.00;95163.13;5058783;28;20530;-72
2022/05/04 05:25:36;;;;;;;12.05;6.03;;;;;;;6.03;100.00;95176.72;5062471;28;20051;-71
2022/05/04 05:28:03;;;;;;;12.65;6.82;;;;;;;6.21;100.00;95169.25;5060074;28;20050;-71
2022/05/04 05:30:30;;;;;;;14.20;7.15;;;;;;;6.32;100.00;95160.91;5063386;28;20048;-71
2022/05/04 05:32:56;;;;;;;9.27;4.88;;;;;;;6.44;100.00;95168.06;5062763;28;20630;-72
2022/05/04 05:35:23;;;;;;;7.63;5.05;;;;;;;6.22;100.00;95168.22;5063538;28;20051;-71
2022/05/04 05:37:50;;;;;;;11.73;6.72;;;;;;;5.96;100.00;95150.84;5063018;28;20355;-71
2022/05/04 05:40:17;;;;;;;14.15;6.85;;;;;;;5.96;100.00;95160.38;5046205;28;20051;-70
2022/05/04 05:42:45;;;;;;;12.02;6.07;;;;;;;6.14;100.00;95158.06;5061905;28;20041;-70
2022/05/04 05:45:11;;;;;;;14.25;8.20;;;;;;;6.23;100.00;95162.06;5062539;28;20497;-71
2022/05/04 05:47:39;;;;;;;17.08;10.43;;;;;;;6.29;100.00;95169.03;5065282;28;20051;-71
2022/05/04 05:50:07;;;;;;;13.15;8.80;;;;;;;6.40;100.00;95161.72;5062493;28;20041;-71
2022/05/04 05:52:34;;;;;;;14.23;8.90;;;;;;;6.51;100.00;95163.72;5056195;28;20760;-71
2022/05/04 05:55:01;;;;;;;11.73;7.25;;;;;;;6.64;100.00;95168.09;5065254;28;20663;-72
2022/05/04 05:57:28;;;;;;;12.00;6.85;;;;;;;6.59;100.00;95166.13;5064010;28;20044;-72
2022/05/04 06:00:00;;;;;;;10.10;5.80;;;;;;;6.74;100.00;95167.72;5064548;28;20052;-72
2022/05/04 06:02:37;;;;;;;11.35;6.80;;;;;;;6.81;100.00;95163.34;5059796;28;20637;-71
2022/05/04 06:05:05;;;;;;;15.68;8.25;;;;;;;6.73;100.00;95160.94;5062639;28;20052;-71
2022/05/04 06:07:32;;;;;;;11.25;6.82;;;;;;;6.90;100.00;95172.50;5056542;28;20048;-72
2022/05/04 06:09:59;;;;;;;19.55;6.85;;;;;;;6.77;100.00;95173.31;5062911;28;20717;-71
2022/05/04 06:12:26;;;;;;;11.40;6.82;;;;;;;6.86;100.00;95176.47;5058650;28;20049;-69
2022/05/04 06:14:53;;;;;;;12.32;7.28;;;;;;;6.88;100.00;95164.16;5063447;28;20052;-70
2022/05/04 06:17:20;;;;;;;12.48;7.25;;;;;;;7.00;100.00;95170.31;5059120;28;20134;-69
2022/05/04 06:19:47;;;;;;;11.32;6.93;;;;;;;7.10;100.00;95176.91;5062021;28;20047;-70
2022/05/04 06:22:14;;;;;;;12.80;7.00;;;;;;;7.15;100.00;95184.84;5060079;28;20769;-69
2022/05/04 06:24:41;;;;;;;6.82;4.35;;;;;;;7.06;100.00;95174.69;5061070;28;20762;-68
2022/05/04 06:27:08;;;;;;;10.68;5.30;;;;;;;7.17;100.00;95172.50;5046713;28;20056;-70
2022/05/04 06:35:09;;;;;;;12.82;7.20;;;;;;;7.77;100.00;95198.31;5052801;28;20044;-72
2022/05/04 06:37:36;;;;;;;13.77;6.60;;;;;;;7.96;100.00;95191.44;5080280;28;20056;-72
2022/05/04 06:40:04;;;;;;;14.38;7.80;;;;;;;8.16;100.00;95181.81;5078172;28;20032;-71
2022/05/04 06:42:31;;;;;;;11.57;7.15;;;;;;;8.35;100.00;95184.50;5064083;28;20037;-71
2022/05/04 06:45:03;;;;;;;10.75;6.85;;;;;;;8.43;100.00;95181.72;5057888;28;20694;-73
2022/05/04 06:47:30;;;;;;;9.18;5.72;;;;;;;8.35;100.00;95179.31;5059934;28;20048;-71
2022/05/04 06:49:57;;;;;;;13.75;8.32;;;;;;;8.49;100.00;95170.47;5058508;28;20074;-70
2022/05/04 06:52:24;;;;;;;12.95;7.68;;;;;;;8.57;100.00;95178.03;5058241;28;20052;-71
2022/05/04 06:54:52;;;;;;;11.77;7.68;;;;;;;8.64;100.00;95177.19;5086850;28;20059;-72
2022/05/04 06:57:19;;;;;;;11.38;5.97;;;;;;;8.67;100.00;95171.56;5065976;28;20131;-71
2022/05/04 06:59:46;;;;;;;11.80;6.28;;;;;;;8.85;100.00;95173.44;5065946;28;20186;-71
2022/05/04 07:02:14;;;;;;;11.93;7.20;;;;;;;8.97;100.00;95162.16;5061026;28;20489;-71
2022/05/04 07:04:41;;;;;;;8.68;5.85;;;;;;;9.25;100.00;95179.09;5069639;28;20043;-72
2022/05/04 07:07:08;;;;;;;13.20;7.70;;;;;;;9.40;99.99;95164.97;5056375;28;20056;-72
2022/05/04 07:09:35;;;;;;;11.13;7.88;;;;;;;9.66;98.52;95175.13;5062863;28;20036;-71
2022/05/04 07:12:03;;;;;;;11.23;6.35;;;;;;;9.82;98.51;95172.97;5057551;28;20048;-73
2022/05/04 07:14:30;;;;;;;11.38;5.95;;;;;;;9.81;97.93;95166.94;5063979;28;20044;-72
2022/05/04 07:16:57;;;;;;;5.40;3.40;;;;;;;9.70;97.67;95176.25;5054610;28;20052;-72
2022/05/04 07:19:24;;;;;;;14.57;9.13;;;;;;;9.66;97.85;95166.53;5060147;28;20130;-72
2022/05/04 07:21:51;;;;;;;11.57;6.88;;;;;;;9.77;97.93;95169.19;5061968;28;20044;-72
2022/05/04 07:24:17;;;;;;;16.70;8.75;;;;;;;9.87;97.07;95171.28;5063500;28;20049;-72
2022/05/04 07:26:44;;;;;;;10.13;4.45;;;;;;;9.91;96.24;95171.66;5055444;28;20048;-73
2022/05/04 07:29:11;;;;;;;12.23;6.85;;;;;;;10.12;95.59;95173.81;5051888;28;20060;-72
2022/05/04 07:31:41;;;;;;;8.07;6.10;;;;;;;10.20;94.22;95159.69;5057668;28;20044;-72
2022/05/04 07:34:08;;;;;;;11.73;8.02;;;;;;;10.50;94.28;95153.72;5055524;28;20193;-71
2022/05/04 07:36:35;;;;;;;14.52;7.10;;;;;;;10.79;93.25;95157.28;5064842;28;20221;-71
2022/05/04 07:39:03;;;;;;;10.02;6.63;;;;;;;10.95;92.03;95137.63;5053449;28;20168;-71
2022/05/04 07:44:15;;;;;;;12.45;6.53;;;;;;;11.61;89.09;95164.38;5054868;28;20041;-71
2022/05/04 07:46:43;;;;;;;12.20;6.75;;;;;;;11.75;87.14;95161.50;5050156;28;20111;-71
2022/05/04 07:49:10;;;;;;;17.60;7.30;;;;;;;11.84;87.53;95152.28;5057865;28;20124;-70
2022/05/04 07:51:37;;;;;;;9.93;6.15;;;;;;;11.86;85.93;95155.47;5064771;28;20063;-68
2022/05/04 07:54:04;;;;;;;12.60;8.02;;;;;;;11.94;87.15;95157.75;5058144;28;20037;-70
2022/05/04 07:56:31;;;;;;;9.45;6.20;;;;;;;12.24;86.29;95168.00;5067606;28;20036;-69
2022/05/04 07:58:58;;;;;;;11.27;7.75;;;;;;;12.32;84.68;95169.44;5057183;28;20048;-69
2022/05/04 08:04:16;;;;;;;11.13;6.18;;;;;;;12.25;85.86;95166.19;5056346;28;20175;-69
2022/05/04 08:06:44;;;;;;;7.10;5.10;;;;;;;12.27;84.57;95160.72;5056127;28;20053;-71
2022/05/04 08:09:11;;;;;;;9.85;5.35;;;;;;;12.18;85.21;95160.28;5063093;28;20040;-70
2022/05/04 08:11:38;;;;;;;9.32;5.10;;;;;;;12.52;84.83;95157.78;5058048;28;20052;-71
2022/05/04 08:14:05;;;;;;;7.72;4.00;;;;;;;12.90;80.06;95172.00;5064495;28;20120;-71
2022/05/04 08:16:33;;;;;;;7.32;4.95;;;;;;;13.10;80.57;95159.25;5060240;28;20032;-71
2022/05/04 08:19:00;;;;;;;8.02;4.53;;;;;;;13.28;79.27;95160.03;5062579;28;20043;-70
2022/05/04 08:21:27;;;;;;;5.47;3.50;;;;;;;13.53;78.02;95167.47;5061379;28;20536;-73
2022/05/04 08:23:54;;;;;;;9.75;6.00;;;;;;;13.75;80.66;95149.19;5058958;28;20073;-70
2022/05/04 08:26:22;;;;;;;5.93;3.72;;;;;;;14.01;75.39;95158.16;5071944;28;20127;-71
2022/05/04 08:28:50;;;;;;;6.43;3.15;;;;;;;14.13;74.72;95160.63;5050670;28;20041;-71
2022/05/04 08:31:18;;;;;;;7.88;4.55;;;;;;;14.15;74.04;95148.91;5057265;28;20882;-71
2022/05/04 08:33:45;;;;;;;8.20;5.10;;;;;;;14.01;74.55;95149.50;5074114;28;20052;-70
2022/05/04 08:36:12;;;;;;;6.38;4.85;;;;;;;14.06;73.69;95145.13;5060826;28;20102;-71
2022/05/04 08:38:39;;;;;;;7.15;4.40;;;;;;;14.49;72.74;95140.06;5056007;28;20052;-71
2022/05/04 08:41:07;;;;;;;7.47;4.07;;;;;;;14.66;68.28;95138.16;5060408;28;20407;-71
2022/05/04 08:43:34;;;;;;;9.15;4.45;;;;;;;14.94;66.65;95143.38;5059749;28;20045;-71
2022/05/04 08:46:02;;;;;;;5.18;3.67;;;;;;;15.22;65.87;95144.88;5061098;28;20055;-71
2022/05/04 08:48:33;;;;;;;5.90;4.10;;;;;;;15.44;64.84;95148.16;5070807;28;20052;-71
2022/05/04 08:51:02;;;;;;;7.07;4.70;;;;;;;15.48;64.56;95144.00;5076153;28;20052;-71
2022/05/04 08:53:29;;;;;;;6.88;4.05;;;;;;;15.78;62.68;95137.34;5059914;28;20518;-71
2022/05/04 08:55:57;;;;;;;6.20;3.92;;;;;;;15.96;59.84;95143.22;5063364;28;20048;-72
2022/05/04 08:58:23;;;;;;;4.90;2.72;;;;;;;15.91;56.62;95124.81;5059239;28;20106;-71
2022/05/04 09:00:50;;;;;;;3.70;2.63;;;;;;;15.90;53.02;95147.66;5057554;28;20059;-71
2022/05/04 09:03:20;;;;;;;3.80;2.08;;;;;;;16.00;53.48;95136.41;5060509;28;20214;-70
2022/05/04 09:05:53;;;;;;;4.22;2.80;;;;;;;16.13;50.63;95135.13;5038877;28;20052;-71
2022/05/04 09:08:56;;;;;;;3.45;2.47;;;;;;;16.18;53.14;95140.41;5061031;28;20114;-71
2022/05/04 09:11:24;;;;;;;3.58;2.38;;;;;;;16.36;52.97;95132.03;5059543;28;20041;-70
2022/05/04 09:13:51;;;;;;;4.93;3.20;;;;;;;16.55;53.41;95129.72;5057931;28;20044;-71
2022/05/04 09:16:29;;;;;;;4.55;2.90;;;;;;;16.63;51.40;95137.06;5057486;28;20033;-71
2022/05/04 09:19:00;;;;;;;2.70;1.83;;;;;;;16.62;49.34;95135.50;5061402;28;20048;-72
2022/05/04 09:21:26;;;;;;;3.17;2.08;;;;;;;16.50;48.77;95121.03;5062898;28;20161;-71
2022/05/04 09:23:53;;;;;;;2.67;1.83;;;;;;;16.79;48.85;95135.25;5061723;28;20048;-71
2022/05/04 09:26:22;;;;;;;4.60;2.20;;;;;;;16.83;48.65;95130.28;5059091;28;20072;-71
2022/05/04 09:28:57;;;;;;;2.95;2.10;;;;;;;17.04;48.48;95130.31;5057649;28;20051;-71
2022/05/04 09:31:30;;;;;;;5.07;1.83;;;;;;;17.19;48.60;95128.44;5062685;28;20040;-72
2022/05/04 09:34:06;;;;;;;2.28;1.65;;;;;;;17.31;49.27;95117.63;5056860;28;20041;-72
2022/05/04 09:36:38;;;;;;;2.88;1.83;;;;;;;17.61;46.90;95129.16;5060874;28;20051;-71
2022/05/04 09:45:12;;;;;;;4.80;1.67;;;;;;;17.88;44.56;95101.69;5056052;28;20040;-71
2022/05/04 09:47:47;;;;;;;2.92;1.55;;;;;;;17.82;45.56;95092.22;5062017;28;20044;-71
2022/05/04 09:50:16;;;;;;;4.32;1.80;;;;;;;18.32;45.02;95093.03;5061437;28;20035;-72
2022/05/04 09:52:44;;;;;;;2.40;1.48;;;;;;;18.39;41.21;95101.44;5060048;28;20117;-71
2022/05/04 09:55:20;;;;;;;4.15;1.92;;;;;;;18.52;41.69;95095.53;5075354;28;20049;-71
2022/05/04 09:57:47;;;;;;;2.67;1.40;;;;;;;18.48;41.05;95097.16;5060837;28;20167;-71
2022/05/04 10:00:18;;;;;;;6.32;2.20;;;;;;;18.45;42.39;95089.78;5063077;28;20036;-72
2022/05/04 10:02:52;;;;;;;3.67;2.55;;;;;;;18.70;41.88;95080.13;5062935;28;20048;-71
2022/05/04 10:05:20;;;;;;;6.60;1.52;;;;;;;19.06;40.92;95082.50;5062648;28;20450;-71
2022/05/04 10:07:49;;;;;;;2.00;1.35;;;;;;;19.38;40.19;95099.63;5063240;28;20110;-72
2022/05/04 10:10:19;;;;;;;7.10;1.70;;;;;;;19.85;41.56;95083.00;5064459;28;20037;-72
2022/05/04 10:12:46;;;;;;;1.73;0.98;;;;;;;19.56;39.79;95083.06;5058233;28;20102;-71
2022/05/04 10:15:16;;;;;;;2.10;1.70;;;;;;;19.43;39.85;95081.09;5062397;28;20569;-71
2022/05/04 10:17:58;;;;;;;1.67;1.38;;;;;;;19.14;41.23;95068.72;5057555;28;20037;-71
2022/05/04 10:20:48;;;;;;;2.38;1.83;;;;;;;19.21;42.74;95066.53;5051371;28;20069;-71
2022/05/04 10:23:21;;;;;;;2.40;1.52;;;;;;;18.88;41.77;95076.06;5064017;28;20066;-71
2022/05/04 10:25:50;;;;;;;2.15;1.63;;;;;;;18.68;40.61;95061.16;5063153;28;20105;-72
2022/05/04 10:28:17;;;;;;;3.78;1.80;;;;;;;18.61;40.74;95077.28;5057228;28;20441;-71
2022/05/04 10:30:53;;;;;;;2.53;1.55;;;;;;;18.54;41.39;95061.75;5044029;28;20517;-71
2022/05/04 10:33:25;;;;;;;3.30;2.25;;;;;;;18.41;42.46;95062.41;5062905;28;20393;-71
2022/05/04 10:35:53;;;;;;;2.10;1.40;;;;;;;18.56;41.79;95058.06;5057940;28;20536;-71
2022/05/04 10:38:26;;;;;;;2.30;1.55;;;;;;;18.95;41.18;95049.34;5063071;28;20056;-71
2022/05/04 10:40:56;;;;;;;2.83;1.55;;;;;;;19.48;42.14;95054.59;5075471;28;20076;-71
2022/05/04 10:43:43;;;;;;;3.17;1.75;;;;;;;19.59;39.90;95057.91;5061376;28;20106;-71
2022/05/04 10:46:16;;;;;;;3.97;1.70;;;;;;;19.18;39.66;95053.88;5058086;28;20037;-71
2022/05/04 10:49:05;;;;;;;3.53;1.70;;;;;;;18.58;42.16;95058.59;5062631;28;20051;-71
2022/05/04 10:51:37;;;;;;;2.58;1.70;;;;;;;17.89;50.01;95050.59;5068485;28;20041;-69
2022/05/04 10:54:18;;;;;;;2.65;1.80;;;;;;;17.80;53.02;95057.44;5060399;28;20125;-69
2022/05/04 10:56:54;;;;;;;3.35;2.20;;;;;;;17.36;56.33;95059.72;5061261;28;20717;-68
2022/05/04 10:59:30;;;;;;;4.63;2.30;;;;;;;17.43;57.17;95071.78;5060299;28;20517;-70
2022/05/04 11:02:04;;;;;;;2.67;1.90;;;;;;;17.29;53.59;95068.94;5061573;28;20453;-68
2022/05/04 11:04:33;;;;;;;2.85;2.08;;;;;;;17.18;62.18;95057.66;5061786;28;20053;-69
2022/05/04 11:07:00;;;;;;;3.20;2.28;;;;;;;17.33;67.78;95047.06;5059132;28;20517;-68
2022/05/04 11:09:31;;;;;;;4.45;2.22;;;;;;;17.57;73.72;95043.84;5061906;28;20048;-69
2022/05/04 11:12:01;;;;;;;6.53;2.70;;;;;;;17.71;56.08;95055.38;5059285;28;20036;-68
2022/05/04 11:14:28;;;;;;;4.80;3.72;;;;;;;17.93;69.77;95051.59;5063215;28;20048;-69
2022/05/04 11:16:57;;;;;;;6.60;5.32;;;;;;;17.97;68.03;95057.94;5067149;28;20062;-68
2022/05/04 11:19:30;;;;;;;2.78;1.52;;;;;;;17.70;49.69;95053.81;5065417;28;20044;-68
2022/05/04 11:21:58;;;;;;;5.30;2.50;;;;;;;17.39;53.55;95059.19;5063783;28;20045;-67
2022/05/04 11:24:26;;;;;;;4.03;2.20;;;;;;;17.20;64.62;95066.06;5060678;28;20064;-67
2022/05/04 11:26:54;;;;;;;6.85;2.47;;;;;;;16.53;68.77;95076.59;5062836;28;20052;-67
2022/05/04 11:29:29;;;;;;;5.45;3.20;;;;;;;16.16;77.05;95080.22;5061716;28;20094;-66
2022/05/04 11:31:59;;;;;;;4.15;2.75;;;;;;;15.72;71.12;95064.84;5060815;28;20575;-67
2022/05/04 11:34:27;;;;;;;4.45;2.53;;;;;;;15.75;73.03;95053.84;5051653;28;20055;-67
2022/05/04 11:36:59;;;;;;;2.95;1.85;;;;;;;15.72;79.66;95037.78;5053084;28;20055;-67
2022/05/04 11:39:27;;;;;;;3.42;2.58;;;;;;;15.70;81.20;95030.19;5046802;28;20853;-67
2022/05/04 11:41:57;;;;;;;3.35;2.17;;;;;;;15.82;82.37;95033.38;5054967;28;20514;-66
2022/05/04 11:44:25;;;;;;;3.60;2.78;;;;;;;15.98;85.71;95030.81;5048398;28;20658;-67
2022/05/04 11:46:54;;;;;;;4.25;2.60;;;;;;;16.11;85.70;95030.28;5060447;28;20053;-67
2022/05/04 11:49:24;;;;;;;3.47;2.45;;;;;;;16.31;84.29;95018.22;5064102;28;20044;-68
2022/05/04 11:51:52;;;;;;;6.82;3.42;;;;;;;16.58;89.00;95024.03;5050397;28;20441;-67
2022/05/04 11:54:19;;;;;;;5.20;3.83;;;;;;;16.77;85.44;95034.00;5049606;28;20091;-68
2022/05/04 11:56:47;;;;;;;4.15;2.20;;;;;;;16.82;86.01;95034.00;5049790;28;20048;-68
2022/05/04 11:59:14;;;;;;;6.22;2.63;;;;;;;16.75;83.63;95041.38;5054815;28;20044;-68
2022/05/04 12:01:41;;;;;;;4.88;2.72;;;;;;;16.80;83.48;95049.25;5043631;28;20106;-68
2022/05/04 12:04:11;;;;;;;7.55;2.70;;;;;;;16.56;81.59;95041.88;5053156;28;20102;-67
2022/05/04 12:06:39;;;;;;;2.13;1.50;;;;;;;15.98;70.07;95017.66;5045320;28;20068;-68
2022/05/04 12:09:12;;;;;;;2.38;1.40;;;;;;;15.80;69.85;95019.72;5056502;28;20792;-67
2022/05/04 12:11:39;;;;;;;2.97;1.30;;;;;;;15.84;80.49;95015.50;5058162;28;20056;-67